HALF-HOURLY OBSERVATIONS INDEX

083

Northeast - Upper

DINNER PLAIN (MT HOTHAM AP)_

Site: 083055
Alt: 1295.4m
24km WNW of OMEO


  Time     Wind        Temp  DP   Baro     Rain since   Rain past  Vis(m), Cloud(base in m), Weather
  local        km/h                         9am  last   hr   10m    
Mon 11:00  ESE  7/ 13  18.4 10.8  1020.6    0.0   0.0   0.0   0.0   10000 
Mon 11:30    E  7/ 15  19.3 11.1  1020.7    0.0   0.0   0.0   0.0   10000 
Mon 12:00  NNE  7/ 13  20.0 11.0  1020.7    0.0   0.0   0.0   0.0   10000|SC1080 
Mon 12:30    W  6/ 13  21.4 10.9  1020.4    0.0   0.0   0.0   0.0   10000|SC1260 
Mon 13:00    S  9/ 19  21.1  8.0  1020.3    0.0   0.0   0.0   0.0   10000 
Mon 13:30   SE 13/ 24  20.3 10.7  1020.2    0.0   0.0   0.0   0.0   10000|SC1110 
Mon 14:00  ESE 11/ 19  20.1 11.6  1020.3    0.0   0.0   0.0   0.0   10000|SC1050 SC1290 BR1500 
Mon 14:30  ESE  6/ 15  19.4 10.9  1020.2    0.0   0.0   0.0   0.0   10000|SC1020 BR1290 
Mon 15:00    E 15/ 22  19.7 11.5  1020.2    0.0   0.0   0.0   0.0   10000|SC1020 SC1560 
Mon 15:30  ESE 17/ 26  18.8 11.4  1020.1    0.0   0.0   0.0   0.0   10000 
Mon 16:00    E 13/ 20  18.3 11.8  1020.2    0.0   0.0   0.0   0.0   10000 
Mon 16:30  ESE 15/ 22  18.4 11.9  1020.0    0.0   0.0   0.0   0.0   10000|SC 720 SC 930 

FALLS CREEK

Site: 083084
Alt: 1765.0m
38km NW of OMEO


  Time     Wind        Temp  DP   Baro     Rain since   Rain past  Vis(m), Cloud(base in m), Weather
  local        km/h                         9am  last   hr   10m    
Mon 11:00    W 11/ 20  16.2  3.6  1022.8    0.0   0.0   0.0   0.0   ----- 
Mon 11:30    W  9/ 19  16.7  5.3  1023.2    0.0   0.0   0.0   0.0   ----- 
Mon 12:00  WNW 11/ 22  17.0  4.0  1023.2    0.0   0.0   0.0   0.0   ----- 
Mon 12:30    W 11/ 22  17.4  4.7  1023.1    0.0   0.0   0.0   0.0   ----- 
Mon 13:00  WNW  7/ 15  18.7  5.9  1023.0    0.0   0.0   0.0   0.0   ----- 
Mon 13:30    W  7/ 17  18.1  7.5  1023.0    0.0   0.0   0.0   0.0   ----- 
Mon 14:00    N 13/ 28  18.6  7.7  1023.0    0.0   0.0   0.0   0.0   ----- 
Mon 14:30  NNW 15/ 28  18.7  8.4  1022.7    0.0   0.0   0.0   0.0   ----- 
Mon 15:00  WNW  9/ 15  18.5  7.6  1022.5    0.0   0.0   0.0   0.0   ----- 
Mon 15:30   NE 15/ 20  19.8  8.2  1022.5    0.0   0.0   0.0   0.0   ----- 
Mon 16:00  ESE 13/ 20  17.5 10.9  1022.5    0.0   0.0   0.0   0.0   ----- 
Mon 16:30   SE 13/ 20  16.3 11.0  1022.3    0.0   0.0   0.0   0.0   ----- 

MOUNT BULLER

Site: 083024
Alt: 1707.0m
78km SSE of BENALLA


  Time     Wind        Temp  DP   Baro     Rain since   Rain past  Vis(m), Cloud(base in m), Weather
  local        km/h                         9am  last   hr   10m    
Mon 11:00   SW 13/ 19  16.1  7.8  ------    0.0   0.0   0.0   0.0   ----- 
Mon 11:30  WSW 11/ 17  16.3  1.6  ------    0.0   0.0   0.0   0.0   ----- 
Mon 12:00  SSW  9/ 19  17.0  1.0  ------    0.0   0.0   0.0   0.0   ----- 
Mon 12:30   SE  7/ 15  17.0  7.1  ------    0.0   0.0   0.0   0.0   ----- 
Mon 13:00   SE  6/ 15  17.1  4.1  ------    0.0   0.0   0.0   0.0   ----- 
Mon 13:30   SE  4/  9  17.9  4.8  ------    0.0   0.0   0.0   0.0   ----- 
Mon 14:00    S  6/ 13  18.3  5.5  ------    0.0   0.0   0.0   0.0   ----- 
Mon 14:30   SE  7/ 15  17.5  4.1  ------    0.0   0.0   0.0   0.0   ----- 
Mon 15:00    S  6/ 17  18.8  5.6  ------    0.0   0.0   0.0   0.0   ----- 
Mon 15:30    S  7/ 13  18.5  6.7  ------    0.0   0.0   0.0   0.0   ----- 
Mon 16:00  SSW  7/ 17  18.7  9.8  ------    0.0   0.0   0.0   0.0   ----- 
Mon 16:30  SSW  7/ 13  17.5  8.4  ------    0.0   0.0   0.0   0.0   ----- 

MOUNT HOTHAM

Site: 083085
Alt: 1849.0m
43km WNW of OMEO


  Time     Wind        Temp  DP   Baro     Rain since   Rain past  Vis(m), Cloud(base in m), Weather
  local        km/h                         9am  last   hr   10m    
Mon 11:00  SSW  9/ 17  14.4  6.0  ------    0.0   0.0   0.0   0.0   ----- 
Mon 11:30   SW 11/ 20  14.6  6.2  ------    0.0   0.0   0.0   0.0   ----- 
Mon 12:00   SW 13/ 26  14.8  6.4  ------    0.0   0.0   0.0   0.0   ----- 
Mon 12:30   SW 13/ 22  15.4  6.2  ------    0.0   0.0   0.0   0.0   ----- 
Mon 13:00  WSW 11/ 22  16.7  5.0  ------    0.0   0.0   0.0   0.0   ----- 
Mon 13:30    W 13/ 20  15.9  2.3  ------    0.0   0.0   0.0   0.0   ----- 
Mon 14:00  WSW  7/ 15  17.4  1.8  ------    0.0   0.0   0.0   0.0   ----- 
Mon 14:30    W  7/ 15  17.4  2.6  ------    0.0   0.0   0.0   0.0   ----- 
Mon 15:00    W  9/ 20  17.9  5.2  ------    0.0   0.0   0.0   0.0   ----- 
Mon 15:30   SW  7/ 13  18.0  5.2  ------    0.0   0.0   0.0   0.0   ----- 
Mon 16:00    S  7/ 13  17.6  4.6  ------    0.0   0.0   0.0   0.0   ----- 
Mon 16:30  SSE 13/ 20  16.5 10.4  ------    0.0   0.0   0.0   0.0   ----- 

OMEO

Site: 083090
Alt: 689.8m
1km SSE of OMEO


  Time     Wind        Temp  DP   Baro     Rain since   Rain past  Vis(m), Cloud(base in m), Weather
  local        km/h                         9am  last   hr   10m    
Mon 11:00    S  7/ 15  18.5 11.8  1019.5    0.0   0.0   0.0   0.0   ----- 
Mon 11:30  SSE  9/ 15  20.1 11.8  1019.4    0.0   0.0   0.0   0.0   ----- 
Mon 12:00   SE 13/ 22  22.8 13.0  1019.3    0.0   0.0   0.0   0.0   ----- 
Mon 12:30   SE 15/ 28  23.2 12.2  1019.0    0.0   0.0   0.0   0.0   ----- 
Mon 13:00   SE 17/ 28  24.9 13.5  1018.7    0.0   0.0   0.0   0.0   ----- 
Mon 13:30   SE 20/ 33  24.1 12.7  1018.7    0.0   0.0   0.0   0.0   ----- 
Mon 14:00   SE 20/ 32  24.0 12.3  1018.7    0.0   0.0   0.0   0.0   ----- 
Mon 14:30   SE 19/ 32  24.0 13.2  1018.7    0.0   0.0   0.0   0.0   ----- 
Mon 15:00   SE 20/ 32  23.5 13.1  1018.5    0.0   0.0   0.0   0.0   ----- 
Mon 15:30   SE 20/ 32  23.9 13.2  1018.5    0.0   0.0   0.0   0.0   ----- 
Mon 16:00   SE 19/ 32  22.6 11.7  1018.5    0.0   0.0   0.0   0.0   ----- 
Mon 16:30   SE 20/ 33  21.0 11.6  1018.3    0.0   0.0   0.0   0.0   -----